Time;durP1;ratioP1;P1;durP2;ratioP2;P2;SDS_P1;SDS_P2;PMS_P1;PMS_P2;Temp;Humidity;BMP_temperature;BMP_pressure;BME280_temperature;BME280_humidity;BME280_pressure;Samples;Min_cycle;Max_cycle;Signal;HPM_P1;HPM_P2
2021/08/03 00:02:02;;;;;;;4.30;2.10;;;15.50;99.90;;;;;;5045968;28;20714;-47
2021/08/03 00:04:40;;;;;;;3.37;2.40;;;15.50;99.90;;;;;;5044992;28;20217;-48
2021/08/03 00:07:10;;;;;;;4.70;2.07;;;15.60;99.90;;;;;;5045152;28;20241;-48
2021/08/03 00:09:39;;;;;;;3.80;2.20;;;15.60;99.90;;;;;;5046479;28;20620;-48
2021/08/03 00:12:13;;;;;;;3.53;2.67;;;15.60;99.90;;;;;;5044671;28;20621;-48
2021/08/03 00:14:45;;;;;;;4.03;2.50;;;15.60;99.90;;;;;;5044337;28;20253;-47
2021/08/03 00:17:15;;;;;;;3.00;2.30;;;15.60;99.90;;;;;;5045790;28;20208;-47
2021/08/03 00:19:43;;;;;;;2.63;2.17;;;15.60;99.90;;;;;;5044889;28;20689;-48
2021/08/03 00:22:10;;;;;;;3.33;2.40;;;15.60;99.90;;;;;;5046333;28;20245;-48
2021/08/03 00:24:37;;;;;;;3.47;2.50;;;15.60;99.90;;;;;;5045017;28;20249;-48
2021/08/03 00:27:06;;;;;;;5.73;2.40;;;15.70;99.90;;;;;;5045539;28;20286;-48
2021/08/03 00:29:34;;;;;;;3.50;2.53;;;15.70;99.90;;;;;;5044677;28;20286;-48
2021/08/03 00:32:01;;;;;;;4.57;2.87;;;15.70;99.90;;;;;;5045470;28;20329;-48
2021/08/03 00:34:28;;;;;;;5.27;2.60;;;15.70;99.90;;;;;;5044268;28;20228;-47
2021/08/03 00:36:55;;;;;;;5.10;2.63;;;15.80;99.90;;;;;;5045746;28;20654;-47
2021/08/03 00:39:23;;;;;;;3.93;2.23;;;15.70;76.30;;;;;;5045403;28;20293;-47
2021/08/03 00:41:57;;;;;;;3.63;2.67;;;15.90;99.90;;;;;;5045108;28;20343;-47
2021/08/03 00:44:45;;;;;;;5.13;2.50;;;16.00;99.90;;;;;;5044982;28;20667;-48
2021/08/03 00:47:13;;;;;;;3.13;2.37;;;15.80;99.90;;;;;;5045103;28;20222;-48
2021/08/03 00:49:41;;;;;;;4.90;2.50;;;15.90;99.90;;;;;;5045020;28;20263;-47
2021/08/03 00:52:09;;;;;;;4.63;2.90;;;16.00;99.90;;;;;;5044777;28;20245;-47
2021/08/03 00:54:37;;;;;;;7.37;2.53;;;16.00;99.90;;;;;;5044421;28;20242;-47
2021/08/03 00:57:06;;;;;;;4.07;2.80;;;15.80;99.90;;;;;;5046116;28;20295;-47
2021/08/03 00:59:33;;;;;;;5.07;2.90;;;15.70;99.90;;;;;;5045136;28;20293;-48
2021/08/03 01:02:03;;;;;;;4.77;3.30;;;15.70;99.90;;;;;;5045391;28;20808;-47
2021/08/03 01:04:30;;;;;;;4.13;2.50;;;15.80;99.90;;;;;;5045840;28;20227;-48
2021/08/03 01:07:06;;;;;;;5.10;3.27;;;15.90;99.90;;;;;;5048333;28;20587;-48
2021/08/03 01:10:08;;;;;;;4.97;2.60;;;15.80;99.90;;;;;;5049231;28;20624;-48
2021/08/03 01:13:08;;;;;;;5.80;2.73;;;15.80;86.90;;;;;;5043617;28;20333;-47
2021/08/03 01:15:45;;;;;;;3.73;2.67;;;15.90;99.90;;;;;;5031123;28;20301;-48
2021/08/03 01:18:12;;;;;;;5.97;2.90;;;16.00;99.90;;;;;;5048313;28;20219;-48
2021/08/03 01:20:52;;;;;;;5.23;3.00;;;16.00;55.10;;;;;;5048267;28;20238;-48
2021/08/03 01:23:57;;;;;;;5.37;2.83;;;15.90;29.40;;;;;;5048088;28;20357;-48
2021/08/03 01:26:54;;;;;;;6.87;2.73;;;15.90;14.70;;;;;;5049080;28;20231;-48
2021/08/03 01:29:24;;;;;;;3.43;2.97;;;15.80;36.40;;;;;;5048813;28;20231;-48
2021/08/03 01:31:56;;;;;;;5.07;3.30;;;15.80;96.30;;;;;;5048150;28;20365;-48
2021/08/03 01:34:26;;;;;;;3.60;2.83;;;15.80;99.90;;;;;;5047696;28;20242;-48
2021/08/03 01:36:56;;;;;;;4.93;3.40;;;15.80;99.90;;;;;;5048127;28;20253;-48
2021/08/03 01:39:42;;;;;;;6.67;2.80;;;15.70;99.90;;;;;;5047828;28;20722;-48
2021/08/03 01:42:10;;;;;;;6.93;3.20;;;15.80;99.90;;;;;;5048509;28;20239;-48
2021/08/03 01:44:41;;;;;;;5.70;3.00;;;15.80;99.90;;;;;;5047745;28;20251;-48
2021/08/03 01:47:08;;;;;;;4.87;3.20;;;15.70;99.90;;;;;;5048573;28;20269;-47
2021/08/03 01:49:39;;;;;;;4.37;3.17;;;15.80;99.90;;;;;;5046684;28;20542;-47
2021/08/03 01:52:08;;;;;;;4.27;3.10;;;15.80;99.90;;;;;;5048701;28;20664;-48
2021/08/03 01:54:35;;;;;;;5.50;3.23;;;15.80;99.90;;;;;;5047219;28;20640;-47
2021/08/03 01:57:03;;;;;;;4.33;3.03;;;15.90;99.90;;;;;;5049090;28;20238;-48
2021/08/03 01:59:31;;;;;;;5.67;3.30;;;16.00;99.90;;;;;;5050426;28;20623;-48
2021/08/03 02:01:59;;;;;;;4.53;3.60;;;15.80;99.90;;;;;;5052951;28;20236;-48
2021/08/03 02:04:29;;;;;;;6.10;3.53;;;15.80;99.90;;;;;;5047734;28;20217;-48
2021/08/03 02:06:56;;;;;;;4.20;2.97;;;15.90;99.90;;;;;;5048014;28;20203;-48
2021/08/03 02:09:24;;;;;;;4.87;3.17;;;15.90;99.90;;;;;;5047879;28;20288;-48
2021/08/03 02:11:56;;;;;;;4.70;3.40;;;15.80;99.90;;;;;;5047729;28;20245;-48
2021/08/03 02:14:23;;;;;;;4.10;3.20;;;15.60;99.90;;;;;;5048059;28;20722;-48
2021/08/03 02:16:50;;;;;;;4.87;3.20;;;15.70;99.90;;;;;;5045915;28;20525;-48
2021/08/03 02:19:17;;;;;;;4.73;3.10;;;15.80;99.90;;;;;;5046555;28;20249;-48
2021/08/03 02:21:45;;;;;;;3.53;2.87;;;15.90;99.90;;;;;;5047311;28;20242;-48
2021/08/03 02:24:12;;;;;;;6.60;3.40;;;15.90;99.90;;;;;;5047002;28;20265;-48
2021/08/03 02:26:39;;;;;;;5.07;3.33;;;15.80;99.90;;;;;;5047155;28;20630;-47
2021/08/03 02:29:07;;;;;;;5.17;3.27;;;15.70;99.90;;;;;;5048416;28;20388;-48
2021/08/03 02:31:44;;;;;;;5.27;3.23;;;15.80;99.90;;;;;;5046798;28;20280;-48
2021/08/03 02:34:22;;;;;;;4.77;2.90;;;15.90;99.90;;;;;;5046855;28;20326;-48
2021/08/03 02:36:53;;;;;;;4.20;2.83;;;15.90;99.90;;;;;;5048096;28;20703;-47
2021/08/03 02:39:21;;;;;;;4.13;3.33;;;15.90;99.90;;;;;;5046872;28;20294;-47
2021/08/03 02:41:49;;;;;;;5.13;3.03;;;15.90;99.90;;;;;;5047141;28;20241;-48
2021/08/03 02:44:20;;;;;;;3.97;2.87;;;15.90;99.90;;;;;;5046962;28;20254;-47
2021/08/03 02:46:53;;;;;;;4.97;3.27;;;15.90;99.90;;;;;;5047431;28;20247;-47
2021/08/03 02:49:34;;;;;;;4.80;3.43;;;15.80;99.90;;;;;;5046467;28;20287;-47
2021/08/03 02:52:04;;;;;;;5.90;3.07;;;15.90;99.90;;;;;;5047531;28;20293;-47
2021/08/03 02:54:37;;;;;;;5.93;3.13;;;15.80;99.90;;;;;;5045306;28;20211;-48
2021/08/03 02:57:06;;;;;;;4.93;3.53;;;15.90;99.90;;;;;;5046810;28;20293;-47
2021/08/03 02:59:38;;;;;;;7.33;3.23;;;15.80;99.90;;;;;;5046449;28;20297;-47
2021/08/03 03:02:08;;;;;;;5.40;2.70;;;15.90;99.90;;;;;;5046081;28;20698;-48
2021/08/03 03:04:51;;;;;;;4.77;2.93;;;15.90;99.90;;;;;;5045928;28;20223;-47
2021/08/03 03:07:35;;;;;;;5.30;3.20;;;15.80;99.90;;;;;;5045747;28;20235;-48
2021/08/03 03:10:06;;;;;;;5.67;3.60;;;15.80;99.90;;;;;;5044788;28;20204;-48
2021/08/03 03:12:35;;;;;;;3.87;2.80;;;15.80;99.90;;;;;;5045359;28;20333;-48
2021/08/03 03:15:05;;;;;;;7.07;2.97;;;15.90;99.90;;;;;;5046337;28;20211;-48
2021/08/03 03:17:34;;;;;;;3.67;2.90;;;15.80;99.90;;;;;;5046864;28;20209;-47
2021/08/03 03:20:05;;;;;;;5.43;3.40;;;15.70;99.90;;;;;;5045949;28;20360;-48
2021/08/03 03:22:40;;;;;;;5.40;3.30;;;15.70;99.90;;;;;;5047196;28;20245;-48
2021/08/03 03:25:10;;;;;;;4.20;3.20;;;15.40;99.90;;;;;;5045755;28;20324;-48
2021/08/03 03:27:38;;;;;;;4.80;3.20;;;15.50;99.90;;;;;;5046414;28;20234;-47
2021/08/03 03:30:05;;;;;;;3.70;2.93;;;15.40;99.90;;;;;;5046248;28;20264;-47
2021/08/03 03:32:33;;;;;;;4.43;3.00;;;15.30;99.90;;;;;;5046872;28;20319;-48
2021/08/03 03:35:00;;;;;;;3.67;2.87;;;15.30;99.90;;;;;;5044840;28;20241;-48
2021/08/03 03:37:29;;;;;;;4.97;2.43;;;15.30;99.90;;;;;;5046941;28;20206;-48
2021/08/03 03:39:57;;;;;;;5.40;2.87;;;15.10;99.90;;;;;;5045405;28;20207;-48
2021/08/03 03:42:30;;;;;;;3.60;2.80;;;15.10;99.90;;;;;;5046186;28;20226;-47
2021/08/03 03:44:59;;;;;;;6.03;2.83;;;15.20;99.90;;;;;;5046476;28;20752;-48
2021/08/03 03:47:31;;;;;;;4.07;2.70;;;15.10;99.90;;;;;;5045767;28;20293;-48
2021/08/03 03:50:04;;;;;;;3.17;2.87;;;15.20;99.90;;;;;;5044559;28;20207;-48
2021/08/03 03:52:38;;;;;;;5.20;3.30;;;15.30;99.90;;;;;;5045889;28;20594;-47
2021/08/03 03:55:08;;;;;;;5.97;2.97;;;15.30;99.90;;;;;;5045073;28;20278;-48
2021/08/03 03:57:36;;;;;;;4.10;3.23;;;15.40;99.90;;;;;;5045224;28;20307;-48
2021/08/03 04:00:03;;;;;;;4.40;3.27;;;15.40;99.90;;;;;;5046406;28;20266;-48
2021/08/03 04:02:31;;;;;;;4.33;3.20;;;15.40;99.90;;;;;;5045350;28;20315;-48
2021/08/03 04:04:59;;;;;;;4.47;2.97;;;15.40;99.90;;;;;;5044695;28;20279;-48
2021/08/03 04:07:28;;;;;;;4.67;2.80;;;15.30;99.90;;;;;;5045552;28;20197;-48
2021/08/03 04:10:07;;;;;;;3.30;2.93;;;15.30;99.90;;;;;;5045809;28;20212;-48
2021/08/03 04:12:34;;;;;;;6.20;3.20;;;15.30;99.90;;;;;;5045971;28;20709;-48
2021/08/03 04:15:03;;;;;;;3.80;3.40;;;15.20;99.90;;;;;;5044611;28;20251;-48
2021/08/03 04:17:30;;;;;;;4.60;3.00;;;15.20;99.90;;;;;;5045716;28;20209;-48
2021/08/03 04:19:56;;;;;;;3.53;3.00;;;15.30;99.90;;;;;;5045055;28;20245;-48
2021/08/03 04:22:24;;;;;;;3.30;2.93;;;15.30;99.90;;;;;;5045634;28;20299;-48
2021/08/03 04:24:51;;;;;;;3.80;2.80;;;15.30;99.90;;;;;;5045480;28;20229;-48
2021/08/03 04:27:18;;;;;;;5.00;2.93;;;15.20;99.90;;;;;;5046057;28;20225;-48
2021/08/03 04:29:45;;;;;;;5.67;3.30;;;15.20;99.90;;;;;;5046156;28;20203;-48
2021/08/03 04:32:12;;;;;;;8.33;3.30;;;15.10;99.90;;;;;;5046493;28;20318;-48
2021/08/03 04:34:39;;;;;;;4.83;3.20;;;15.10;99.90;;;;;;5044990;28;20235;-51
2021/08/03 04:37:07;;;;;;;6.90;3.40;;;15.20;99.90;;;;;;5046744;28;20744;-48
2021/08/03 04:39:34;;;;;;;4.13;3.43;;;15.30;99.90;;;;;;5046284;28;20655;-48
2021/08/03 04:42:01;;;;;;;3.60;3.20;;;15.40;99.90;;;;;;5050397;28;20224;-48
2021/08/03 04:44:28;;;;;;;3.43;2.90;;;15.40;99.90;;;;;;5049541;28;20299;-47
2021/08/03 04:46:55;;;;;;;3.80;2.77;;;15.30;99.90;;;;;;5050392;28;20596;-48
2021/08/03 04:49:22;;;;;;;5.97;3.17;;;15.30;99.90;;;;;;5049011;28;20313;-48
2021/08/03 04:51:48;;;;;;;3.43;3.13;;;15.30;99.90;;;;;;5050240;28;20238;-48
2021/08/03 04:54:15;;;;;;;3.80;3.27;;;15.30;99.90;;;;;;5047949;28;20211;-48
2021/08/03 04:56:42;;;;;;;4.00;3.30;;;15.20;99.90;;;;;;5049978;28;20272;-48
2021/08/03 04:59:09;;;;;;;3.87;3.27;;;15.10;99.90;;;;;;5048931;28;20633;-48
2021/08/03 05:01:35;;;;;;;3.40;2.87;;;15.20;99.90;;;;;;5048896;28;20303;-48
2021/08/03 05:04:02;;;;;;;3.93;3.07;;;15.30;99.90;;;;;;5046702;28;20216;-48
2021/08/03 05:06:29;;;;;;;3.27;2.90;;;15.30;99.90;;;;;;5048548;28;20696;-47
2021/08/03 05:08:56;;;;;;;4.83;3.80;;;15.20;99.90;;;;;;5049277;28;20703;-48
2021/08/03 05:11:23;;;;;;;3.37;3.03;;;15.20;99.90;;;;;;5040508;28;20230;-48
2021/08/03 05:13:49;;;;;;;3.53;3.10;;;15.10;99.90;;;;;;5048313;28;20644;-48
2021/08/03 05:16:16;;;;;;;5.73;4.07;;;15.20;99.90;;;;;;5049195;28;20292;-48
2021/08/03 05:18:43;;;;;;;4.27;3.30;;;15.20;99.90;;;;;;5048122;28;20211;-47
2021/08/03 05:21:10;;;;;;;7.07;3.87;;;15.30;99.90;;;;;;5049547;28;20233;-48
2021/08/03 05:23:37;;;;;;;8.00;4.03;;;15.20;99.90;;;;;;5047481;28;20352;-48
2021/08/03 05:26:04;;;;;;;5.77;4.30;;;15.20;99.90;;;;;;5049283;28;20729;-48
2021/08/03 05:28:30;;;;;;;5.00;3.83;;;15.30;99.90;;;;;;5048206;28;20793;-48
2021/08/03 05:30:57;;;;;;;6.43;4.90;;;15.20;99.90;;;;;;5048778;28;20288;-48
2021/08/03 05:33:24;;;;;;;8.73;5.10;;;15.20;99.90;;;;;;5047683;28;20238;-48
2021/08/03 05:35:51;;;;;;;8.17;5.80;;;15.20;99.90;;;;;;5048286;28;20243;-48
2021/08/03 05:38:17;;;;;;;6.37;5.10;;;15.20;99.90;;;;;;5049044;28;20248;-48
2021/08/03 05:40:46;;;;;;;10.17;5.40;;;15.20;99.90;;;;;;5047929;28;20314;-47
2021/08/03 05:43:13;;;;;;;7.13;5.97;;;15.30;99.90;;;;;;5048232;28;20212;-48
2021/08/03 05:45:41;;;;;;;7.70;5.73;;;15.30;99.90;;;;;;5048455;28;20493;-48
2021/08/03 05:48:08;;;;;;;12.33;6.50;;;15.20;99.90;;;;;;5048593;28;20204;-48
2021/08/03 05:50:34;;;;;;;10.30;6.00;;;15.10;99.90;;;;;;5047283;28;20401;-48
2021/08/03 05:53:01;;;;;;;11.43;6.60;;;15.20;99.90;;;;;;5048135;28;20290;-48
2021/08/03 05:55:28;;;;;;;13.30;8.77;;;15.30;99.90;;;;;;5047261;28;20674;-48
2021/08/03 05:57:55;;;;;;;12.47;8.27;;;15.30;99.90;;;;;;5039956;28;20673;-48
2021/08/03 06:00:21;;;;;;;14.57;11.20;;;15.40;99.90;;;;;;5043646;28;20301;-48
2021/08/03 06:02:48;;;;;;;17.37;10.43;;;15.40;99.90;;;;;;5047300;28;20202;-48
2021/08/03 06:05:16;;;;;;;15.00;10.67;;;15.40;99.90;;;;;;5046887;28;20224;-48
2021/08/03 06:07:48;;;;;;;16.50;10.40;;;15.40;99.90;;;;;;5048388;28;20266;-48
2021/08/03 06:10:16;;;;;;;16.67;11.57;;;15.20;99.90;;;;;;5048039;28;20867;-48
2021/08/03 06:12:53;;;;;;;18.63;11.97;;;15.30;99.90;;;;;;5048528;28;20266;-48
2021/08/03 06:15:20;;;;;;;14.70;11.30;;;15.30;99.90;;;;;;5046557;28;20306;-47
2021/08/03 06:18:02;;;;;;;20.43;12.33;;;15.30;99.90;;;;;;5048326;28;20609;-48
2021/08/03 06:20:29;;;;;;;16.50;13.10;;;15.40;99.90;;;;;;5047049;28;20547;-48
2021/08/03 06:22:57;;;;;;;24.03;16.03;;;15.40;99.90;;;;;;5047889;28;20267;-48
2021/08/03 06:25:24;;;;;;;23.70;16.90;;;15.40;99.90;;;;;;5047454;28;20673;-48
2021/08/03 06:27:53;;;;;;;26.03;17.77;;;15.40;99.90;;;;;;5047723;28;20626;-48
2021/08/03 06:30:21;;;;;;;22.50;16.20;;;15.50;99.90;;;;;;5047183;28;20227;-48
2021/08/03 06:32:48;;;;;;;24.30;17.03;;;15.80;99.90;;;;;;5047707;28;20290;-48
2021/08/03 06:35:15;;;;;;;21.97;16.37;;;15.90;99.90;;;;;;5045975;28;20235;-48
2021/08/03 06:37:42;;;;;;;20.13;15.27;;;16.00;99.90;;;;;;5047030;28;20292;-48
2021/08/03 06:40:10;;;;;;;20.33;15.33;;;16.00;99.90;;;;;;5046938;28;20253;-48
2021/08/03 06:42:46;;;;;;;18.57;15.50;;;16.10;99.90;;;;;;5047152;28;20207;-48
2021/08/03 06:45:24;;;;;;;16.93;13.50;;;16.10;99.90;;;;;;5047929;28;20576;-48
2021/08/03 06:47:53;;;;;;;19.43;12.33;;;16.20;99.90;;;;;;5046955;28;20739;-48
2021/08/03 06:50:25;;;;;;;17.67;14.07;;;16.20;99.90;;;;;;5047632;28;20735;-47
2021/08/03 06:52:52;;;;;;;18.20;13.63;;;16.30;99.90;;;;;;5046359;28;20292;-48
2021/08/03 06:55:26;;;;;;;20.50;15.17;;;16.60;99.90;;;;;;5047827;28;20232;-48
2021/08/03 06:57:54;;;;;;;18.70;14.00;;;16.80;99.90;;;;;;5047935;28;20262;-47
2021/08/03 07:00:23;;;;;;;18.07;14.80;;;17.10;99.90;;;;;;5047219;28;20542;-48
2021/08/03 07:02:51;;;;;;;19.03;14.63;;;17.20;99.90;;;;;;5046173;28;20250;-48
2021/08/03 07:05:26;;;;;;;18.57;14.47;;;17.30;99.90;;;;;;5045087;28;20310;-48
2021/08/03 07:08:00;;;;;;;20.20;14.90;;;17.50;99.90;;;;;;5048294;28;20240;-48
2021/08/03 07:10:28;;;;;;;21.23;15.10;;;17.80;49.40;;;;;;5046342;28;20211;-48
2021/08/03 07:12:55;;;;;;;22.43;14.93;;;17.70;1.00;;;;;;5045934;28;20367;-48
2021/08/03 07:15:27;;;;;;;22.43;16.10;;;17.80;1.00;;;;;;5046535;28;20239;-48
2021/08/03 07:17:54;;;;;;;23.07;15.90;;;17.90;1.00;;;;;;5047058;28;20243;-48
2021/08/03 07:20:23;;;;;;;21.17;15.30;;;18.20;1.00;;;;;;5045753;28;20204;-48
2021/08/03 07:22:50;;;;;;;20.17;14.80;;;18.30;1.00;;;;;;5047106;28;20735;-48
2021/08/03 07:25:18;;;;;;;23.53;16.67;;;18.50;1.00;;;;;;5045289;28;20241;-48
2021/08/03 07:27:45;;;;;;;23.70;16.00;;;18.40;1.00;;;;;;5046894;28;20549;-48
2021/08/03 07:30:12;;;;;;;22.43;15.63;;;18.50;1.00;;;;;;5045439;28;20310;-48
2021/08/03 07:32:39;;;;;;;19.50;15.10;;;18.60;1.00;;;;;;5047007;28;20735;-48
2021/08/03 07:35:07;;;;;;;20.90;15.40;;;18.40;99.90;;;;;;5045233;28;20259;-48
2021/08/03 07:37:35;;;;;;;18.70;15.10;;;17.80;1.00;;;;;;5046445;28;20783;-48
2021/08/03 07:40:04;;;;;;;21.20;15.57;;;17.70;1.00;;;;;;5044405;28;20210;-48
2021/08/03 07:42:31;;;;;;;20.00;15.63;;;17.90;1.00;;;;;;5045791;28;20302;-48
2021/08/03 07:44:57;;;;;;;19.17;14.73;;;18.10;1.00;;;;;;5045725;28;20281;-48
2021/08/03 07:47:24;;;;;;;22.00;16.47;;;18.00;1.00;;;;;;5046435;28;20297;-48
2021/08/03 07:49:52;;;;;;;19.40;15.20;;;17.80;1.00;;;;;;5045128;28;20232;-48
2021/08/03 07:52:20;;;;;;;21.10;16.50;;;17.50;1.00;;;;;;5045292;28;20325;-48
2021/08/03 07:54:48;;;;;;;22.97;15.87;;;17.50;99.90;;;;;;5046146;28;20200;-48
2021/08/03 07:57:15;;;;;;;21.03;16.60;;;17.50;45.30;;;;;;5044764;28;20634;-48
2021/08/03 07:59:41;;;;;;;21.10;15.33;;;17.80;1.00;;;;;;5046699;28;20290;-48
2021/08/03 08:02:08;;;;;;;21.37;15.20;;;18.00;1.00;;;;;;5045032;28;20388;-48
2021/08/03 08:04:35;;;;;;;21.87;15.47;;;18.30;1.00;;;;;;5045273;28;20285;-48
2021/08/03 08:07:03;;;;;;;22.47;15.97;;;18.60;1.00;;;;;;5044433;28;20288;-48
2021/08/03 08:09:30;;;;;;;21.60;15.50;;;18.30;1.00;;;;;;5045936;28;20295;-48
2021/08/03 08:11:57;;;;;;;20.73;14.40;;;18.30;1.00;;;;;;5046053;28;20200;-48
2021/08/03 08:14:24;;;;;;;19.37;15.83;;;18.00;1.00;;;;;;5044245;28;20358;-47
2021/08/03 08:16:51;;;;;;;20.63;15.07;;;18.10;1.00;;;;;;5045525;28;20218;-50
2021/08/03 08:19:17;;;;;;;16.80;14.10;;;18.30;1.00;;;;;;5045974;28;20216;-48
2021/08/03 08:21:44;;;;;;;16.37;13.47;;;18.40;1.00;;;;;;5044714;28;20487;-48
2021/08/03 08:24:11;;;;;;;18.47;14.63;;;18.50;1.00;;;;;;5045641;28;20242;-48
2021/08/03 08:26:38;;;;;;;19.07;15.17;;;18.50;1.00;;;;;;5036301;28;20250;-48
2021/08/03 08:29:05;;;;;;;18.80;14.67;;;18.70;1.00;;;;;;5045483;28;20237;-48
2021/08/03 08:31:31;;;;;;;19.87;15.60;;;19.00;1.00;;;;;;5045488;28;20307;-48
2021/08/03 08:33:58;;;;;;;20.37;15.00;;;18.60;1.00;;;;;;5045182;28;20357;-48
2021/08/03 08:36:25;;;;;;;17.50;13.83;;;18.70;1.00;;;;;;5045673;28;20306;-48
2021/08/03 08:38:52;;;;;;;18.33;13.17;;;18.80;99.90;;;;;;5045471;28;20242;-48
2021/08/03 08:41:19;;;;;;;17.00;12.77;;;18.80;99.90;;;;;;5045212;28;20245;-48
2021/08/03 08:43:47;;;;;;;14.30;11.67;;;18.90;1.00;;;;;;5046344;28;20656;-48
2021/08/03 08:46:14;;;;;;;14.07;11.73;;;18.70;88.10;;;;;;5045665;28;20403;-47
2021/08/03 08:48:42;;;;;;;14.87;12.13;;;18.60;1.00;;;;;;5045897;28;20551;-47
2021/08/03 08:51:10;;;;;;;14.13;12.53;;;18.50;75.80;;;;;;5044981;28;20204;-47
2021/08/03 08:53:37;;;;;;;12.77;10.83;;;19.00;1.00;;;;;;5045389;28;20268;-47
2021/08/03 08:56:05;;;;;;;13.90;12.40;;;19.10;1.00;;;;;;5044529;28;20235;-48
2021/08/03 08:58:37;;;;;;;15.87;12.13;;;19.20;1.00;;;;;;5044892;28;20234;-48
2021/08/03 09:01:04;;;;;;;13.50;11.77;;;19.50;1.00;;;;;;5045731;28;20736;-49
2021/08/03 09:03:31;;;;;;;15.07;11.67;;;19.30;99.90;;;;;;5043993;28;20204;-48
2021/08/03 09:06:05;;;;;;;11.37;9.03;;;19.60;1.00;;;;;;5044262;28;20216;-49
2021/08/03 09:08:36;;;;;;;10.63;7.73;;;19.80;1.00;;;;;;5045981;28;20631;-48
2021/08/03 09:11:10;;;;;;;10.07;7.67;;;19.80;1.00;;;;;;5044885;28;20578;-48
2021/08/03 09:13:49;;;;;;;11.93;9.20;;;19.70;99.90;;;;;;5043965;28;20794;-48
2021/08/03 09:16:16;;;;;;;12.23;8.63;;;19.70;1.00;;;;;;5045231;28;20207;-48
2021/08/03 09:18:47;;;;;;;10.50;8.63;;;20.00;1.00;;;;;;5044513;28;20564;-49
2021/08/03 09:21:18;;;;;;;10.13;8.13;;;19.90;1.00;;;;;;5045366;28;20539;-48
2021/08/03 09:23:57;;;;;;;8.50;6.93;;;20.30;1.00;;;;;;5044666;28;20319;-49
2021/08/03 09:26:42;;;;;;;10.20;7.33;;;20.30;1.00;;;;;;5047919;28;20451;-48
2021/08/03 09:29:11;;;;;;;10.63;8.83;;;20.30;1.00;;;;;;5049154;28;20731;-48
2021/08/03 09:31:40;;;;;;;11.40;8.87;;;20.40;1.00;;;;;;5048211;28;20311;-48
2021/08/03 09:34:15;;;;;;;12.70;7.97;;;20.40;1.00;;;;;;5048162;28;20269;-48
2021/08/03 09:36:55;;;;;;;12.53;8.97;;;20.40;1.00;;;;;;5047897;28;20234;-48
2021/08/03 09:39:37;;;;;;;10.77;8.40;;;20.50;43.30;;;;;;5047628;28;20678;-48
2021/08/03 09:42:27;;;;;;;12.07;9.07;;;20.30;99.90;;;;;;5048477;28;20655;-48
2021/08/03 09:45:07;;;;;;;13.33;9.87;;;20.00;1.00;;;;;;5048310;28;20246;-48
2021/08/03 09:47:38;;;;;;;12.57;10.40;;;20.30;99.90;;;;;;5048023;28;20210;-48
2021/08/03 09:50:09;;;;;;;12.03;10.73;;;20.10;1.00;;;;;;5047725;28;20240;-48
2021/08/03 09:52:41;;;;;;;13.67;10.40;;;20.20;1.00;;;;;;5047518;28;20255;-49
2021/08/03 09:55:11;;;;;;;11.33;9.93;;;20.40;1.00;;;;;;5048005;28;20235;-48
2021/08/03 09:57:38;;;;;;;13.87;9.93;;;20.00;99.90;;;;;;5047851;28;20308;-49
2021/08/03 10:00:34;;;;;;;13.63;10.83;;;20.10;1.00;;;;;;5048221;28;20274;-48
2021/08/03 10:03:02;;;;;;;16.17;10.83;;;19.90;1.00;;;;;;5047667;28;20215;-48
2021/08/03 10:05:29;;;;;;;10.93;9.67;;;19.80;99.90;;;;;;5044679;28;20219;-48
2021/08/03 10:07:57;;;;;;;14.93;12.17;;;19.90;99.90;;;;;;5048688;28;20246;-48
2021/08/03 10:10:24;;;;;;;14.40;11.70;;;19.80;99.90;;;;;;5047442;28;20250;-48
2021/08/03 10:12:51;;;;;;;16.73;12.13;;;19.80;1.00;;;;;;5048766;28;20310;-48
2021/08/03 10:15:18;;;;;;;13.73;11.63;;;19.80;99.90;;;;;;5047299;28;20211;-48
2021/08/03 10:17:45;;;;;;;12.13;10.83;;;20.00;1.00;;;;;;5048461;28;20294;-48
2021/08/03 10:20:14;;;;;;;14.23;12.30;;;20.40;1.00;;;;;;5046837;28;20591;-48
2021/08/03 10:23:02;;;;;;;12.40;11.13;;;20.40;1.00;;;;;;5048226;28;20203;-48
2021/08/03 10:25:34;;;;;;;13.30;11.73;;;20.30;1.00;;;;;;5047216;28;20207;-48
2021/08/03 10:28:22;;;;;;;12.90;10.87;;;20.30;26.00;;;;;;5047426;28;20206;-48
2021/08/03 10:30:49;;;;;;;16.57;13.13;;;20.50;1.00;;;;;;5047327;28;20207;-48
2021/08/03 10:33:46;;;;;;;14.10;11.60;;;20.10;1.00;;;;;;5046669;28;20285;-48
2021/08/03 10:36:39;;;;;;;12.77;11.13;;;20.30;1.00;;;;;;5045969;28;20204;-49
2021/08/03 10:39:09;;;;;;;15.03;11.57;;;20.30;1.00;;;;;;5047189;28;20652;-49
2021/08/03 10:42:06;;;;;;;12.97;11.40;;;20.30;1.00;;;;;;5047047;28;20293;-48
2021/08/03 10:44:51;;;;;;;14.40;10.87;;;20.50;1.00;;;;;;5046623;28;20294;-49
2021/08/03 10:47:40;;;;;;;15.73;10.00;;;20.50;99.90;;;;;;5045611;28;20310;-48
2021/08/03 10:50:27;;;;;;;12.07;10.37;;;20.70;99.90;;;;;;5047396;28;20706;-48
2021/08/03 10:52:55;;;;;;;9.50;8.50;;;21.00;1.00;;;;;;5046364;28;20203;-48
2021/08/03 10:55:40;;;;;;;11.60;8.80;;;21.00;99.90;;;;;;5046864;28;20286;-48
2021/08/03 10:58:13;;;;;;;14.23;9.70;;;21.00;99.90;;;;;;5047424;28;20628;-48
2021/08/03 11:00:41;;;;;;;11.47;7.60;;;21.10;1.00;;;;;;5046169;28;20993;-49
2021/08/03 11:03:30;;;;;;;8.40;6.67;;;20.80;1.00;;;;;;5046094;28;20697;-51
2021/08/03 11:06:17;;;;;;;10.97;6.87;;;20.70;99.90;;;;;;5045438;28;20220;-51
2021/08/03 11:08:47;;;;;;;6.10;5.50;;;20.70;1.00;;;;;;5039053;28;20647;-48
2021/08/03 11:11:25;;;;;;;6.93;6.07;;;20.90;1.00;;;;;;5047211;28;20204;-48
2021/08/03 11:14:04;;;;;;;8.70;6.00;;;20.80;1.00;;;;;;5045807;28;20321;-48
2021/08/03 11:16:31;;;;;;;6.33;5.60;;;20.60;1.00;;;;;;5046713;28;20792;-48
2021/08/03 11:19:04;;;;;;;8.13;6.23;;;20.60;1.00;;;;;;5047184;28;20306;-48
2021/08/03 11:21:37;;;;;;;6.30;5.70;;;20.70;99.90;;;;;;5047296;28;20254;-48
2021/08/03 11:24:15;;;;;;;6.97;5.27;;;20.70;1.00;;;;;;5049598;28;20235;-48
2021/08/03 11:26:53;;;;;;;5.73;5.13;;;20.90;1.00;;;;;;5049849;28;20711;-48
2021/08/03 11:29:26;;;;;;;7.70;5.70;;;20.80;99.90;;;;;;5049683;28;20640;-49
2021/08/03 11:31:58;;;;;;;8.53;6.07;;;20.60;99.90;;;;;;5047962;28;20325;-49
2021/08/03 11:34:31;;;;;;;9.20;6.47;;;20.60;99.90;;;;;;5045879;28;20218;-49
2021/08/03 11:37:19;;;;;;;8.97;6.07;;;20.70;99.90;;;;;;5047284;28;20308;-48
2021/08/03 11:39:56;;;;;;;6.50;5.70;;;20.50;99.90;;;;;;5045577;28;20605;-48
2021/08/03 11:42:33;;;;;;;6.10;5.50;;;20.40;99.90;;;;;;5046219;28;20284;-48
2021/08/03 11:45:05;;;;;;;6.20;4.87;;;20.10;99.90;;;;;;5046079;28;20280;-48
2021/08/03 11:47:45;;;;;;;5.57;5.03;;;20.20;1.00;;;;;;5046670;28;20338;-49
2021/08/03 11:50:13;;;;;;;7.37;4.93;;;20.20;99.90;;;;;;5050158;28;20226;-49
2021/08/03 11:52:40;;;;;;;8.07;5.83;;;20.30;1.00;;;;;;5048767;28;20594;-48
2021/08/03 11:55:12;;;;;;;8.07;5.57;;;20.30;1.00;;;;;;5045953;28;20273;-48
2021/08/03 11:57:41;;;;;;;7.00;5.07;;;20.70;1.00;;;;;;5046170;28;20235;-48
2021/08/03 12:00:10;;;;;;;6.67;5.43;;;21.40;99.90;;;;;;5046466;28;20290;-48
2021/08/03 12:02:39;;;;;;;7.60;4.77;;;21.40;1.00;;;;;;5045487;28;20703;-48
2021/08/03 12:05:13;;;;;;;7.23;5.23;;;21.30;1.00;;;;;;5042994;28;20211;-48
2021/08/03 12:07:51;;;;;;;8.27;6.33;;;21.00;1.00;;;;;;5046077;28;20307;-49
2021/08/03 12:10:20;;;;;;;7.10;5.10;;;20.60;1.00;;;;;;5045871;28;20727;-49
2021/08/03 12:12:48;;;;;;;6.50;5.13;;;20.80;1.00;;;;;;5045476;28;20286;-48
2021/08/03 12:15:17;;;;;;;6.10;4.90;;;20.60;99.90;;;;;;5045494;28;20251;-48
2021/08/03 12:17:46;;;;;;;6.20;4.70;;;20.60;1.00;;;;;;5046376;28;20310;-49
2021/08/03 12:20:25;;;;;;;4.53;3.97;;;20.60;99.90;;;;;;5044514;28;20533;-48
2021/08/03 12:22:53;;;;;;;6.60;4.30;;;20.70;1.00;;;;;;5046070;28;20258;-48
2021/08/03 12:25:20;;;;;;;7.10;5.17;;;20.90;1.00;;;;;;5045193;28;20626;-47
2021/08/03 12:27:48;;;;;;;7.87;5.47;;;20.80;1.00;;;;;;5045673;28;20648;-48
2021/08/03 12:30:38;;;;;;;7.40;4.97;;;20.60;99.90;;;;;;5045476;28;20246;-48
2021/08/03 12:33:06;;;;;;;6.07;4.40;;;20.60;99.90;;;;;;5044717;28;20259;-48
2021/08/03 12:35:38;;;;;;;8.43;5.27;;;20.50;1.00;;;;;;5044962;28;20195;-48
2021/08/03 12:38:17;;;;;;;5.63;4.57;;;20.60;1.00;;;;;;5045648;28;20642;-48
2021/08/03 12:40:44;;;;;;;5.63;5.03;;;20.50;1.00;;;;;;5044829;28;20197;-48
2021/08/03 12:43:11;;;;;;;5.00;4.50;;;20.30;1.00;;;;;;5044047;28;20566;-48
2021/08/03 12:45:42;;;;;;;5.27;4.20;;;20.30;1.00;;;;;;5046086;28;20236;-48
2021/08/03 12:48:09;;;;;;;7.50;4.57;;;20.30;1.00;;;;;;5045900;28;20284;-48
2021/08/03 12:50:48;;;;;;;8.33;5.07;;;20.10;1.00;;;;;;5044219;28;20211;-48
2021/08/03 12:53:26;;;;;;;8.17;4.73;;;20.00;1.00;;;;;;5045364;28;20705;-48
2021/08/03 12:56:06;;;;;;;7.60;4.77;;;20.10;1.00;;;;;;5044207;28;20407;-48
2021/08/03 12:58:33;;;;;;;6.50;4.20;;;20.00;1.00;;;;;;5045425;28;20208;-49
2021/08/03 13:01:15;;;;;;;5.27;4.00;;;20.10;1.00;;;;;;5047341;28;20258;-48
2021/08/03 13:03:42;;;;;;;4.43;3.90;;;20.10;1.00;;;;;;5047626;28;20257;-48